Terminal Aerodrome Forecast
Issued by NWS Cleveland, OH

Home | Current Version | Previous Version | Graphics & Text | Print | Product List | Glossary On
Versions: 1 2 3 4 5 6 7 8 9 10 11 12 13 14 15 16 17 18 19 20 21 22
000
FTUS41 KCLE 151300 AAA
TAFYNG
TAF AMD
KYNG 151318Z 1513/1612 VRB03KT P6SM SCT250
     FM151430 21008KT P6SM SCT100 BKN250
     FM152200 23005KT P6SM -RA BKN060 OVC100
     FM160400 30005KT P6SM -RA OVC040
     FM160900 32005KT 4SM BR OVC004=

USA.gov is the U.S. government's official web portal to all federal, state and local government web resources and services.